sensor_id;sensor_type;location;lat;lon;timestamp;temperature;humidity
16781;DHT22;8507;50.056;8.248;2023-11-19T00:00:10;9.40;99.90
16781;DHT22;8507;50.056;8.248;2023-11-19T00:02:40;9.20;99.90
16781;DHT22;8507;50.056;8.248;2023-11-19T00:05:06;9.30;99.90
16781;DHT22;8507;50.056;8.248;2023-11-19T00:07:37;9.10;99.90
16781;DHT22;8507;50.056;8.248;2023-11-19T00:10:10;8.90;99.90
16781;DHT22;8507;50.056;8.248;2023-11-19T00:12:44;8.80;99.90
16781;DHT22;8507;50.056;8.248;2023-11-19T00:15:10;8.60;99.90
16781;DHT22;8507;50.056;8.248;2023-11-19T00:17:42;8.70;99.90
16781;DHT22;8507;50.056;8.248;2023-11-19T00:20:14;8.90;99.90
16781;DHT22;8507;50.056;8.248;2023-11-19T00:22:40;9.00;99.90
16781;DHT22;8507;50.056;8.248;2023-11-19T00:25:08;9.10;99.90
16781;DHT22;8507;50.056;8.248;2023-11-19T00:27:35;9.20;99.90
16781;DHT22;8507;50.056;8.248;2023-11-19T00:30:01;9.30;99.90
16781;DHT22;8507;50.056;8.248;2023-11-19T00:32:26;9.30;99.90
16781;DHT22;8507;50.056;8.248;2023-11-19T00:34:52;9.40;99.90
16781;DHT22;8507;50.056;8.248;2023-11-19T00:37:17;9.40;99.90
16781;DHT22;8507;50.056;8.248;2023-11-19T00:39:43;9.40;99.90
16781;DHT22;8507;50.056;8.248;2023-11-19T00:42:09;9.50;99.90
16781;DHT22;8507;50.056;8.248;2023-11-19T00:44:35;9.40;99.90
16781;DHT22;8507;50.056;8.248;2023-11-19T00:47:01;9.30;99.90
16781;DHT22;8507;50.056;8.248;2023-11-19T00:49:27;9.20;99.90
16781;DHT22;8507;50.056;8.248;2023-11-19T00:51:52;9.30;99.90
16781;DHT22;8507;50.056;8.248;2023-11-19T00:54:18;9.30;99.90
16781;DHT22;8507;50.056;8.248;2023-11-19T00:56:43;9.00;99.90
16781;DHT22;8507;50.056;8.248;2023-11-19T00:59:10;9.00;99.90
16781;DHT22;8507;50.056;8.248;2023-11-19T01:01:36;9.10;99.90
16781;DHT22;8507;50.056;8.248;2023-11-19T01:04:01;9.10;99.90
16781;DHT22;8507;50.056;8.248;2023-11-19T01:06:30;9.20;99.90
16781;DHT22;8507;50.056;8.248;2023-11-19T01:08:56;9.30;99.90
16781;DHT22;8507;50.056;8.248;2023-11-19T01:11:22;9.40;99.90
16781;DHT22;8507;50.056;8.248;2023-11-19T01:13:49;9.50;99.90
16781;DHT22;8507;50.056;8.248;2023-11-19T01:16:15;9.60;99.90
16781;DHT22;8507;50.056;8.248;2023-11-19T01:18:40;9.60;99.90
16781;DHT22;8507;50.056;8.248;2023-11-19T01:21:06;9.60;99.90
16781;DHT22;8507;50.056;8.248;2023-11-19T01:23:31;9.60;99.90
16781;DHT22;8507;50.056;8.248;2023-11-19T01:25:58;9.70;99.90
16781;DHT22;8507;50.056;8.248;2023-11-19T01:28:23;9.70;99.90
16781;DHT22;8507;50.056;8.248;2023-11-19T01:30:51;9.70;99.90
16781;DHT22;8507;50.056;8.248;2023-11-19T01:33:16;9.50;99.90
16781;DHT22;8507;50.056;8.248;2023-11-19T01:35:42;9.20;99.90
16781;DHT22;8507;50.056;8.248;2023-11-19T01:38:07;9.30;99.90
16781;DHT22;8507;50.056;8.248;2023-11-19T01:40:36;9.50;99.90
16781;DHT22;8507;50.056;8.248;2023-11-19T01:43:02;9.60;99.90
16781;DHT22;8507;50.056;8.248;2023-11-19T01:45:29;9.50;99.90
16781;DHT22;8507;50.056;8.248;2023-11-19T01:48:00;9.60;99.90
16781;DHT22;8507;50.056;8.248;2023-11-19T01:50:28;9.50;99.90
16781;DHT22;8507;50.056;8.248;2023-11-19T01:52:54;9.50;99.90
16781;DHT22;8507;50.056;8.248;2023-11-19T01:55:22;9.60;99.90
16781;DHT22;8507;50.056;8.248;2023-11-19T01:57:49;9.50;99.90
16781;DHT22;8507;50.056;8.248;2023-11-19T02:00:16;9.20;99.90
16781;DHT22;8507;50.056;8.248;2023-11-19T02:02:45;9.10;99.90
16781;DHT22;8507;50.056;8.248;2023-11-19T02:05:12;9.00;99.90
16781;DHT22;8507;50.056;8.248;2023-11-19T02:07:38;9.00;99.90
16781;DHT22;8507;50.056;8.248;2023-11-19T02:10:05;9.00;99.90
16781;DHT22;8507;50.056;8.248;2023-11-19T02:12:34;9.00;99.90
16781;DHT22;8507;50.056;8.248;2023-11-19T02:14:59;9.10;99.90
16781;DHT22;8507;50.056;8.248;2023-11-19T02:17:29;9.20;99.90
16781;DHT22;8507;50.056;8.248;2023-11-19T02:19:56;9.20;99.90
16781;DHT22;8507;50.056;8.248;2023-11-19T02:22:22;9.20;99.90
16781;DHT22;8507;50.056;8.248;2023-11-19T02:24:51;9.30;99.90
16781;DHT22;8507;50.056;8.248;2023-11-19T02:27:43;9.50;99.90
16781;DHT22;8507;50.056;8.248;2023-11-19T02:30:11;9.60;99.90
16781;DHT22;8507;50.056;8.248;2023-11-19T02:32:36;9.70;99.90
16781;DHT22;8507;50.056;8.248;2023-11-19T02:35:06;9.70;99.90
16781;DHT22;8507;50.056;8.248;2023-11-19T02:37:34;9.70;99.90
16781;DHT22;8507;50.056;8.248;2023-11-19T02:39:59;9.80;99.90
16781;DHT22;8507;50.056;8.248;2023-11-19T02:42:34;9.80;99.90
16781;DHT22;8507;50.056;8.248;2023-11-19T02:45:01;9.90;99.90
16781;DHT22;8507;50.056;8.248;2023-11-19T02:47:27;9.90;99.90
16781;DHT22;8507;50.056;8.248;2023-11-19T02:49:55;9.90;99.90
16781;DHT22;8507;50.056;8.248;2023-11-19T02:52:21;10.00;99.90
16781;DHT22;8507;50.056;8.248;2023-11-19T02:54:46;10.00;99.90
16781;DHT22;8507;50.056;8.248;2023-11-19T02:57:12;10.00;99.90
16781;DHT22;8507;50.056;8.248;2023-11-19T02:59:39;9.90;99.90
16781;DHT22;8507;50.056;8.248;2023-11-19T03:02:07;9.90;99.90
16781;DHT22;8507;50.056;8.248;2023-11-19T03:04:36;10.00;99.90
16781;DHT22;8507;50.056;8.248;2023-11-19T03:07:03;10.00;99.90
16781;DHT22;8507;50.056;8.248;2023-11-19T03:09:29;9.70;99.90
16781;DHT22;8507;50.056;8.248;2023-11-19T03:11:55;9.50;99.90
16781;DHT22;8507;50.056;8.248;2023-11-19T03:14:20;9.50;99.90
16781;DHT22;8507;50.056;8.248;2023-11-19T03:16:47;9.30;99.90
16781;DHT22;8507;50.056;8.248;2023-11-19T03:19:12;9.40;99.90
16781;DHT22;8507;50.056;8.248;2023-11-19T03:21:38;9.30;99.90
16781;DHT22;8507;50.056;8.248;2023-11-19T03:24:03;9.30;99.90
16781;DHT22;8507;50.056;8.248;2023-11-19T03:26:29;9.20;99.90
16781;DHT22;8507;50.056;8.248;2023-11-19T03:28:55;9.10;99.90
16781;DHT22;8507;50.056;8.248;2023-11-19T03:31:22;9.10;99.90
16781;DHT22;8507;50.056;8.248;2023-11-19T03:33:48;9.00;99.90
16781;DHT22;8507;50.056;8.248;2023-11-19T03:36:13;9.00;99.90
16781;DHT22;8507;50.056;8.248;2023-11-19T03:38:39;9.00;99.90
16781;DHT22;8507;50.056;8.248;2023-11-19T03:41:14;9.00;99.90
16781;DHT22;8507;50.056;8.248;2023-11-19T03:43:40;9.00;99.90
16781;DHT22;8507;50.056;8.248;2023-11-19T03:46:20;9.00;99.90
16781;DHT22;8507;50.056;8.248;2023-11-19T03:48:49;9.00;99.90
16781;DHT22;8507;50.056;8.248;2023-11-19T03:51:15;9.10;99.90
16781;DHT22;8507;50.056;8.248;2023-11-19T03:53:45;9.30;99.90
16781;DHT22;8507;50.056;8.248;2023-11-19T03:56:11;9.40;99.90
16781;DHT22;8507;50.056;8.248;2023-11-19T03:58:37;9.50;99.90
16781;DHT22;8507;50.056;8.248;2023-11-19T04:01:13;9.50;99.90
16781;DHT22;8507;50.056;8.248;2023-11-19T04:03:39;9.60;99.90
16781;DHT22;8507;50.056;8.248;2023-11-19T04:06:04;9.70;99.90
16781;DHT22;8507;50.056;8.248;2023-11-19T04:08:30;9.80;99.90
16781;DHT22;8507;50.056;8.248;2023-11-19T04:10:55;9.90;99.90
16781;DHT22;8507;50.056;8.248;2023-11-19T04:13:21;10.00;99.90
16781;DHT22;8507;50.056;8.248;2023-11-19T04:15:49;9.90;99.90
16781;DHT22;8507;50.056;8.248;2023-11-19T04:18:14;9.90;99.90
16781;DHT22;8507;50.056;8.248;2023-11-19T04:20:40;9.80;99.90
16781;DHT22;8507;50.056;8.248;2023-11-19T04:23:07;9.50;99.90
16781;DHT22;8507;50.056;8.248;2023-11-19T04:25:33;9.50;99.90
16781;DHT22;8507;50.056;8.248;2023-11-19T04:27:58;9.30;99.90
16781;DHT22;8507;50.056;8.248;2023-11-19T04:30:24;9.30;99.90
16781;DHT22;8507;50.056;8.248;2023-11-19T04:32:49;9.50;99.90
16781;DHT22;8507;50.056;8.248;2023-11-19T04:35:15;9.60;99.90
16781;DHT22;8507;50.056;8.248;2023-11-19T04:37:42;9.70;99.90
16781;DHT22;8507;50.056;8.248;2023-11-19T04:40:07;9.80;99.90
16781;DHT22;8507;50.056;8.248;2023-11-19T04:42:33;9.80;99.90
16781;DHT22;8507;50.056;8.248;2023-11-19T04:44:58;9.90;99.90
16781;DHT22;8507;50.056;8.248;2023-11-19T04:47:24;10.00;99.90
16781;DHT22;8507;50.056;8.248;2023-11-19T04:49:49;10.00;99.90
16781;DHT22;8507;50.056;8.248;2023-11-19T04:52:15;9.80;99.90
16781;DHT22;8507;50.056;8.248;2023-11-19T04:54:41;9.70;99.90
16781;DHT22;8507;50.056;8.248;2023-11-19T04:57:08;9.80;99.90
16781;DHT22;8507;50.056;8.248;2023-11-19T04:59:36;9.70;99.90
16781;DHT22;8507;50.056;8.248;2023-11-19T05:02:02;9.60;99.90
16781;DHT22;8507;50.056;8.248;2023-11-19T05:04:27;9.60;99.90
16781;DHT22;8507;50.056;8.248;2023-11-19T05:06:53;9.60;99.90
16781;DHT22;8507;50.056;8.248;2023-11-19T05:09:18;9.50;99.90
16781;DHT22;8507;50.056;8.248;2023-11-19T05:11:44;9.40;99.90
16781;DHT22;8507;50.056;8.248;2023-11-19T05:14:09;9.50;99.90
16781;DHT22;8507;50.056;8.248;2023-11-19T05:16:35;9.70;99.90
16781;DHT22;8507;50.056;8.248;2023-11-19T05:19:01;9.80;99.90
16781;DHT22;8507;50.056;8.248;2023-11-19T05:21:26;9.90;99.90
16781;DHT22;8507;50.056;8.248;2023-11-19T05:23:52;9.60;99.90
16781;DHT22;8507;50.056;8.248;2023-11-19T05:26:21;9.70;99.90
16781;DHT22;8507;50.056;8.248;2023-11-19T05:28:47;9.80;99.90
16781;DHT22;8507;50.056;8.248;2023-11-19T05:31:13;9.80;99.90
16781;DHT22;8507;50.056;8.248;2023-11-19T05:33:38;9.90;99.90
16781;DHT22;8507;50.056;8.248;2023-11-19T05:36:05;10.00;99.90
16781;DHT22;8507;50.056;8.248;2023-11-19T05:38:31;10.10;99.90
16781;DHT22;8507;50.056;8.248;2023-11-19T05:40:56;10.10;99.90
16781;DHT22;8507;50.056;8.248;2023-11-19T05:43:22;10.00;99.90
16781;DHT22;8507;50.056;8.248;2023-11-19T05:45:47;9.90;99.90
16781;DHT22;8507;50.056;8.248;2023-11-19T05:48:13;10.00;99.90
16781;DHT22;8507;50.056;8.248;2023-11-19T05:50:39;10.00;99.90
16781;DHT22;8507;50.056;8.248;2023-11-19T05:53:05;9.90;99.90
16781;DHT22;8507;50.056;8.248;2023-11-19T05:55:33;9.90;99.90
16781;DHT22;8507;50.056;8.248;2023-11-19T05:58:00;10.00;99.90
16781;DHT22;8507;50.056;8.248;2023-11-19T06:00:25;9.90;99.90
16781;DHT22;8507;50.056;8.248;2023-11-19T06:02:52;9.80;99.90
16781;DHT22;8507;50.056;8.248;2023-11-19T06:05:18;9.90;99.90
16781;DHT22;8507;50.056;8.248;2023-11-19T06:07:43;9.80;99.90
16781;DHT22;8507;50.056;8.248;2023-11-19T06:10:09;9.80;99.90
16781;DHT22;8507;50.056;8.248;2023-11-19T06:12:36;9.60;99.90
16781;DHT22;8507;50.056;8.248;2023-11-19T06:15:07;9.60;99.90
16781;DHT22;8507;50.056;8.248;2023-11-19T06:17:34;9.70;99.90
16781;DHT22;8507;50.056;8.248;2023-11-19T06:19:59;9.80;99.90
16781;DHT22;8507;50.056;8.248;2023-11-19T06:22:25;9.70;99.90
16781;DHT22;8507;50.056;8.248;2023-11-19T06:24:50;9.60;99.90
16781;DHT22;8507;50.056;8.248;2023-11-19T06:27:16;9.60;99.90
16781;DHT22;8507;50.056;8.248;2023-11-19T06:29:42;9.70;99.90
16781;DHT22;8507;50.056;8.248;2023-11-19T06:32:07;9.60;99.90
16781;DHT22;8507;50.056;8.248;2023-11-19T06:34:33;9.80;99.90
16781;DHT22;8507;50.056;8.248;2023-11-19T06:36:59;9.70;99.90
16781;DHT22;8507;50.056;8.248;2023-11-19T06:39:25;9.80;99.90
16781;DHT22;8507;50.056;8.248;2023-11-19T06:41:51;9.90;99.90
16781;DHT22;8507;50.056;8.248;2023-11-19T06:44:17;10.10;99.90
16781;DHT22;8507;50.056;8.248;2023-11-19T06:46:43;10.10;99.90
16781;DHT22;8507;50.056;8.248;2023-11-19T06:49:08;10.00;99.90
16781;DHT22;8507;50.056;8.248;2023-11-19T06:51:34;9.90;99.90
16781;DHT22;8507;50.056;8.248;2023-11-19T06:54:00;10.00;99.90
16781;DHT22;8507;50.056;8.248;2023-11-19T06:56:26;9.90;99.90
16781;DHT22;8507;50.056;8.248;2023-11-19T06:58:52;9.90;99.90
16781;DHT22;8507;50.056;8.248;2023-11-19T07:01:19;10.00;99.90
16781;DHT22;8507;50.056;8.248;2023-11-19T07:03:48;10.20;99.90
16781;DHT22;8507;50.056;8.248;2023-11-19T07:06:14;10.30;99.90
16781;DHT22;8507;50.056;8.248;2023-11-19T07:08:43;10.20;99.90
16781;DHT22;8507;50.056;8.248;2023-11-19T07:11:10;10.00;99.90
16781;DHT22;8507;50.056;8.248;2023-11-19T07:13:37;10.10;99.90
16781;DHT22;8507;50.056;8.248;2023-11-19T07:16:03;10.10;99.90
16781;DHT22;8507;50.056;8.248;2023-11-19T07:18:29;10.20;99.90
16781;DHT22;8507;50.056;8.248;2023-11-19T07:20:54;10.10;99.90
16781;DHT22;8507;50.056;8.248;2023-11-19T07:23:20;10.30;99.90
16781;DHT22;8507;50.056;8.248;2023-11-19T07:25:47;10.30;99.90
16781;DHT22;8507;50.056;8.248;2023-11-19T07:28:13;10.30;99.90
16781;DHT22;8507;50.056;8.248;2023-11-19T07:30:39;10.30;99.90
16781;DHT22;8507;50.056;8.248;2023-11-19T07:33:05;10.40;99.90
16781;DHT22;8507;50.056;8.248;2023-11-19T07:35:31;10.50;99.90
16781;DHT22;8507;50.056;8.248;2023-11-19T07:37:57;10.30;99.90
16781;DHT22;8507;50.056;8.248;2023-11-19T07:40:23;10.30;99.90
16781;DHT22;8507;50.056;8.248;2023-11-19T07:42:49;10.30;99.90
16781;DHT22;8507;50.056;8.248;2023-11-19T07:45:15;10.50;99.90
16781;DHT22;8507;50.056;8.248;2023-11-19T07:47:40;10.60;99.90
16781;DHT22;8507;50.056;8.248;2023-11-19T07:50:06;10.80;99.90
16781;DHT22;8507;50.056;8.248;2023-11-19T07:52:32;10.80;99.90
16781;DHT22;8507;50.056;8.248;2023-11-19T07:54:57;10.80;99.90
16781;DHT22;8507;50.056;8.248;2023-11-19T07:57:23;10.90;99.90
16781;DHT22;8507;50.056;8.248;2023-11-19T07:59:49;11.10;99.90
16781;DHT22;8507;50.056;8.248;2023-11-19T08:02:15;11.20;99.90
16781;DHT22;8507;50.056;8.248;2023-11-19T08:04:40;11.20;99.90
16781;DHT22;8507;50.056;8.248;2023-11-19T08:07:10;11.40;99.90
16781;DHT22;8507;50.056;8.248;2023-11-19T08:09:36;11.40;99.90
16781;DHT22;8507;50.056;8.248;2023-11-19T08:12:03;11.60;99.90
16781;DHT22;8507;50.056;8.248;2023-11-19T08:14:28;11.60;99.90
16781;DHT22;8507;50.056;8.248;2023-11-19T08:16:54;11.70;99.90
16781;DHT22;8507;50.056;8.248;2023-11-19T08:19:19;11.70;99.90
16781;DHT22;8507;50.056;8.248;2023-11-19T08:21:45;11.70;99.90
16781;DHT22;8507;50.056;8.248;2023-11-19T08:24:10;11.80;99.90
16781;DHT22;8507;50.056;8.248;2023-11-19T08:26:36;11.90;99.90
16781;DHT22;8507;50.056;8.248;2023-11-19T08:29:01;12.10;99.90
16781;DHT22;8507;50.056;8.248;2023-11-19T08:31:27;12.30;99.90
16781;DHT22;8507;50.056;8.248;2023-11-19T08:33:53;12.40;99.90
16781;DHT22;8507;50.056;8.248;2023-11-19T08:36:19;12.50;99.90
16781;DHT22;8507;50.056;8.248;2023-11-19T08:38:44;12.60;99.90
16781;DHT22;8507;50.056;8.248;2023-11-19T08:41:10;12.80;99.90
16781;DHT22;8507;50.056;8.248;2023-11-19T08:43:35;12.80;99.90
16781;DHT22;8507;50.056;8.248;2023-11-19T08:46:01;12.80;99.90
16781;DHT22;8507;50.056;8.248;2023-11-19T08:48:26;12.90;99.90
16781;DHT22;8507;50.056;8.248;2023-11-19T08:50:52;12.90;99.90
16781;DHT22;8507;50.056;8.248;2023-11-19T08:53:17;13.20;99.90
16781;DHT22;8507;50.056;8.248;2023-11-19T08:55:43;13.20;99.90
16781;DHT22;8507;50.056;8.248;2023-11-19T08:58:09;13.20;99.90
16781;DHT22;8507;50.056;8.248;2023-11-19T09:00:34;12.90;99.90
16781;DHT22;8507;50.056;8.248;2023-11-19T09:03:00;12.80;99.90
16781;DHT22;8507;50.056;8.248;2023-11-19T09:05:25;12.80;99.90
16781;DHT22;8507;50.056;8.248;2023-11-19T09:07:50;13.20;99.90
16781;DHT22;8507;50.056;8.248;2023-11-19T09:10:16;13.50;99.90
16781;DHT22;8507;50.056;8.248;2023-11-19T09:12:41;13.50;99.90
16781;DHT22;8507;50.056;8.248;2023-11-19T09:15:07;13.60;99.90
16781;DHT22;8507;50.056;8.248;2023-11-19T09:17:35;13.80;99.90
16781;DHT22;8507;50.056;8.248;2023-11-19T09:20:01;14.00;99.90
16781;DHT22;8507;50.056;8.248;2023-11-19T09:22:26;14.00;99.90
16781;DHT22;8507;50.056;8.248;2023-11-19T09:24:52;14.00;99.90
16781;DHT22;8507;50.056;8.248;2023-11-19T09:27:17;14.10;99.90
16781;DHT22;8507;50.056;8.248;2023-11-19T09:29:43;14.20;99.90
16781;DHT22;8507;50.056;8.248;2023-11-19T09:32:11;14.20;99.90
16781;DHT22;8507;50.056;8.248;2023-11-19T09:34:36;14.20;99.90
16781;DHT22;8507;50.056;8.248;2023-11-19T09:37:02;14.20;99.90
16781;DHT22;8507;50.056;8.248;2023-11-19T09:39:28;14.30;99.90
16781;DHT22;8507;50.056;8.248;2023-11-19T09:41:53;14.30;99.90
16781;DHT22;8507;50.056;8.248;2023-11-19T09:44:19;14.40;99.90
16781;DHT22;8507;50.056;8.248;2023-11-19T09:46:45;14.40;99.90
16781;DHT22;8507;50.056;8.248;2023-11-19T09:49:12;14.50;99.90
16781;DHT22;8507;50.056;8.248;2023-11-19T09:51:38;14.70;99.90
16781;DHT22;8507;50.056;8.248;2023-11-19T09:54:04;14.80;99.90
16781;DHT22;8507;50.056;8.248;2023-11-19T09:56:30;14.80;99.90
16781;DHT22;8507;50.056;8.248;2023-11-19T09:58:56;14.80;99.90
16781;DHT22;8507;50.056;8.248;2023-11-19T10:01:21;14.90;99.90
16781;DHT22;8507;50.056;8.248;2023-11-19T10:03:47;15.00;99.90
16781;DHT22;8507;50.056;8.248;2023-11-19T10:06:15;15.00;99.90
16781;DHT22;8507;50.056;8.248;2023-11-19T10:08:42;15.10;99.90
16781;DHT22;8507;50.056;8.248;2023-11-19T10:11:08;15.10;99.90
16781;DHT22;8507;50.056;8.248;2023-11-19T10:13:36;15.20;99.90
16781;DHT22;8507;50.056;8.248;2023-11-19T10:16:13;15.30;99.90
16781;DHT22;8507;50.056;8.248;2023-11-19T10:18:46;15.30;99.90
16781;DHT22;8507;50.056;8.248;2023-11-19T10:21:13;15.20;99.90
16781;DHT22;8507;50.056;8.248;2023-11-19T10:26:14;15.30;99.90
16781;DHT22;8507;50.056;8.248;2023-11-19T10:28:40;15.20;99.90
16781;DHT22;8507;50.056;8.248;2023-11-19T10:31:14;14.90;99.90
16781;DHT22;8507;50.056;8.248;2023-11-19T10:33:40;15.20;99.90
16781;DHT22;8507;50.056;8.248;2023-11-19T10:36:06;15.30;99.90
16781;DHT22;8507;50.056;8.248;2023-11-19T10:38:32;15.40;99.90
16781;DHT22;8507;50.056;8.248;2023-11-19T10:40:58;15.50;99.90
16781;DHT22;8507;50.056;8.248;2023-11-19T10:43:24;15.60;99.90
16781;DHT22;8507;50.056;8.248;2023-11-19T10:45:51;15.60;99.90
16781;DHT22;8507;50.056;8.248;2023-11-19T10:48:17;15.30;99.90
16781;DHT22;8507;50.056;8.248;2023-11-19T10:50:46;15.30;99.90
16781;DHT22;8507;50.056;8.248;2023-11-19T10:53:12;15.30;99.90
16781;DHT22;8507;50.056;8.248;2023-11-19T10:55:47;15.30;99.90
16781;DHT22;8507;50.056;8.248;2023-11-19T10:58:16;15.30;99.90
16781;DHT22;8507;50.056;8.248;2023-11-19T11:00:47;15.30;99.90
16781;DHT22;8507;50.056;8.248;2023-11-19T11:05:50;15.00;99.90
16781;DHT22;8507;50.056;8.248;2023-11-19T11:08:16;14.90;99.90
16781;DHT22;8507;50.056;8.248;2023-11-19T11:10:55;14.90;99.90
16781;DHT22;8507;50.056;8.248;2023-11-19T11:13:23;14.90;99.90
16781;DHT22;8507;50.056;8.248;2023-11-19T11:15:56;15.30;99.90
16781;DHT22;8507;50.056;8.248;2023-11-19T11:18:23;15.30;99.90
16781;DHT22;8507;50.056;8.248;2023-11-19T11:20:53;15.20;99.90
16781;DHT22;8507;50.056;8.248;2023-11-19T11:37:21;15.40;99.90
16781;DHT22;8507;50.056;8.248;2023-11-19T11:39:51;15.40;99.90
16781;DHT22;8507;50.056;8.248;2023-11-19T11:44:58;15.60;99.90
16781;DHT22;8507;50.056;8.248;2023-11-19T11:47:25;15.80;99.90
16781;DHT22;8507;50.056;8.248;2023-11-19T11:49:52;15.80;99.90
16781;DHT22;8507;50.056;8.248;2023-11-19T11:52:17;15.60;99.90
16781;DHT22;8507;50.056;8.248;2023-11-19T11:54:44;15.70;99.90
16781;DHT22;8507;50.056;8.248;2023-11-19T11:57:11;15.60;99.90
16781;DHT22;8507;50.056;8.248;2023-11-19T11:59:46;15.50;99.90
16781;DHT22;8507;50.056;8.248;2023-11-19T12:02:17;15.40;99.90
16781;DHT22;8507;50.056;8.248;2023-11-19T12:04:46;15.50;99.90
16781;DHT22;8507;50.056;8.248;2023-11-19T12:07:15;15.40;99.90
16781;DHT22;8507;50.056;8.248;2023-11-19T12:09:45;15.40;99.90
16781;DHT22;8507;50.056;8.248;2023-11-19T12:12:23;15.10;99.90
16781;DHT22;8507;50.056;8.248;2023-11-19T12:20:03;15.00;99.90
16781;DHT22;8507;50.056;8.248;2023-11-19T12:22:31;14.80;99.90
16781;DHT22;8507;50.056;8.248;2023-11-19T12:24:56;15.00;99.90
16781;DHT22;8507;50.056;8.248;2023-11-19T12:27:22;15.10;99.90
16781;DHT22;8507;50.056;8.248;2023-11-19T12:29:51;15.20;99.90
16781;DHT22;8507;50.056;8.248;2023-11-19T12:32:16;15.10;99.90
16781;DHT22;8507;50.056;8.248;2023-11-19T12:34:42;15.00;99.90
16781;DHT22;8507;50.056;8.248;2023-11-19T12:37:08;14.80;99.90
16781;DHT22;8507;50.056;8.248;2023-11-19T12:39:36;14.70;99.90
16781;DHT22;8507;50.056;8.248;2023-11-19T12:42:02;14.70;99.90
16781;DHT22;8507;50.056;8.248;2023-11-19T12:44:27;14.80;99.90
16781;DHT22;8507;50.056;8.248;2023-11-19T12:47:06;14.90;99.90
16781;DHT22;8507;50.056;8.248;2023-11-19T12:49:35;14.90;99.90
16781;DHT22;8507;50.056;8.248;2023-11-19T12:52:00;14.70;99.90
16781;DHT22;8507;50.056;8.248;2023-11-19T12:54:36;14.60;99.90
16781;DHT22;8507;50.056;8.248;2023-11-19T12:57:03;14.50;99.90
16781;DHT22;8507;50.056;8.248;2023-11-19T12:59:30;14.50;99.90
16781;DHT22;8507;50.056;8.248;2023-11-19T13:01:59;14.50;99.90
16781;DHT22;8507;50.056;8.248;2023-11-19T13:04:29;14.40;99.90
16781;DHT22;8507;50.056;8.248;2023-11-19T13:06:59;14.40;99.90
16781;DHT22;8507;50.056;8.248;2023-11-19T13:09:26;14.40;99.90
16781;DHT22;8507;50.056;8.248;2023-11-19T13:11:53;14.40;99.90
16781;DHT22;8507;50.056;8.248;2023-11-19T13:14:20;14.30;99.90
16781;DHT22;8507;50.056;8.248;2023-11-19T13:16:46;14.50;99.90
16781;DHT22;8507;50.056;8.248;2023-11-19T13:19:15;14.60;99.90
16781;DHT22;8507;50.056;8.248;2023-11-19T13:21:44;14.60;99.90
16781;DHT22;8507;50.056;8.248;2023-11-19T13:24:12;14.70;99.90
16781;DHT22;8507;50.056;8.248;2023-11-19T13:26:38;14.80;99.90
16781;DHT22;8507;50.056;8.248;2023-11-19T13:29:04;14.90;99.90
16781;DHT22;8507;50.056;8.248;2023-11-19T13:31:30;14.90;99.90
16781;DHT22;8507;50.056;8.248;2023-11-19T13:33:55;15.00;99.90
16781;DHT22;8507;50.056;8.248;2023-11-19T13:36:22;15.00;99.90
16781;DHT22;8507;50.056;8.248;2023-11-19T13:38:47;15.10;99.90
16781;DHT22;8507;50.056;8.248;2023-11-19T13:41:13;15.10;99.90
16781;DHT22;8507;50.056;8.248;2023-11-19T13:43:39;15.20;99.90
16781;DHT22;8507;50.056;8.248;2023-11-19T13:46:05;15.10;99.90
16781;DHT22;8507;50.056;8.248;2023-11-19T13:48:31;15.20;99.90
16781;DHT22;8507;50.056;8.248;2023-11-19T13:50:57;15.20;99.90
16781;DHT22;8507;50.056;8.248;2023-11-19T13:53:23;15.10;99.90
16781;DHT22;8507;50.056;8.248;2023-11-19T13:55:51;15.10;99.90
16781;DHT22;8507;50.056;8.248;2023-11-19T13:58:17;15.00;99.90
16781;DHT22;8507;50.056;8.248;2023-11-19T14:00:42;15.00;99.90
16781;DHT22;8507;50.056;8.248;2023-11-19T14:03:09;14.90;99.90
16781;DHT22;8507;50.056;8.248;2023-11-19T14:05:37;14.90;99.90
16781;DHT22;8507;50.056;8.248;2023-11-19T14:08:02;14.90;99.90
16781;DHT22;8507;50.056;8.248;2023-11-19T14:10:28;14.90;99.90
16781;DHT22;8507;50.056;8.248;2023-11-19T14:12:54;14.80;99.90
16781;DHT22;8507;50.056;8.248;2023-11-19T14:15:20;14.80;99.90
16781;DHT22;8507;50.056;8.248;2023-11-19T14:17:45;14.70;99.90
16781;DHT22;8507;50.056;8.248;2023-11-19T14:20:11;14.60;99.90
16781;DHT22;8507;50.056;8.248;2023-11-19T14:22:41;14.40;99.90
16781;DHT22;8507;50.056;8.248;2023-11-19T14:25:09;14.30;99.90
16781;DHT22;8507;50.056;8.248;2023-11-19T14:27:38;14.20;99.90
16781;DHT22;8507;50.056;8.248;2023-11-19T14:30:08;14.10;99.90
16781;DHT22;8507;50.056;8.248;2023-11-19T14:32:38;14.10;99.90
16781;DHT22;8507;50.056;8.248;2023-11-19T14:35:06;14.10;99.90
16781;DHT22;8507;50.056;8.248;2023-11-19T14:37:33;14.10;99.90
16781;DHT22;8507;50.056;8.248;2023-11-19T14:39:59;14.10;99.90
16781;DHT22;8507;50.056;8.248;2023-11-19T14:42:25;14.00;99.90
16781;DHT22;8507;50.056;8.248;2023-11-19T14:44:51;14.00;99.90
16781;DHT22;8507;50.056;8.248;2023-11-19T14:47:18;14.00;99.90
16781;DHT22;8507;50.056;8.248;2023-11-19T14:49:44;13.90;99.90
16781;DHT22;8507;50.056;8.248;2023-11-19T14:52:09;13.80;99.90
16781;DHT22;8507;50.056;8.248;2023-11-19T14:54:36;13.80;99.90
16781;DHT22;8507;50.056;8.248;2023-11-19T14:57:01;13.70;99.90
16781;DHT22;8507;50.056;8.248;2023-11-19T14:59:28;13.70;99.90
16781;DHT22;8507;50.056;8.248;2023-11-19T15:01:54;13.60;99.90
16781;DHT22;8507;50.056;8.248;2023-11-19T15:04:19;13.60;99.90
16781;DHT22;8507;50.056;8.248;2023-11-19T15:06:45;13.60;99.90
16781;DHT22;8507;50.056;8.248;2023-11-19T15:09:11;13.50;99.90
16781;DHT22;8507;50.056;8.248;2023-11-19T15:11:43;13.50;99.90
16781;DHT22;8507;50.056;8.248;2023-11-19T15:14:08;13.40;99.90
16781;DHT22;8507;50.056;8.248;2023-11-19T15:16:33;13.30;99.90
16781;DHT22;8507;50.056;8.248;2023-11-19T15:19:00;13.30;99.90
16781;DHT22;8507;50.056;8.248;2023-11-19T15:21:28;13.20;99.90
16781;DHT22;8507;50.056;8.248;2023-11-19T15:23:55;13.20;99.90
16781;DHT22;8507;50.056;8.248;2023-11-19T15:26:21;13.10;99.90
16781;DHT22;8507;50.056;8.248;2023-11-19T15:28:46;13.10;99.90
16781;DHT22;8507;50.056;8.248;2023-11-19T15:31:12;13.00;99.90
16781;DHT22;8507;50.056;8.248;2023-11-19T15:33:38;13.00;99.90
16781;DHT22;8507;50.056;8.248;2023-11-19T15:36:05;12.90;99.90
16781;DHT22;8507;50.056;8.248;2023-11-19T15:38:33;12.90;99.90
16781;DHT22;8507;50.056;8.248;2023-11-19T15:40:59;12.90;99.90
16781;DHT22;8507;50.056;8.248;2023-11-19T15:43:24;12.90;99.90
16781;DHT22;8507;50.056;8.248;2023-11-19T15:45:50;12.80;99.90
16781;DHT22;8507;50.056;8.248;2023-11-19T15:48:15;12.60;99.90
16781;DHT22;8507;50.056;8.248;2023-11-19T15:50:41;12.60;99.90
16781;DHT22;8507;50.056;8.248;2023-11-19T15:53:09;12.70;99.90
16781;DHT22;8507;50.056;8.248;2023-11-19T15:55:35;12.60;99.90
16781;DHT22;8507;50.056;8.248;2023-11-19T15:58:00;12.50;99.90
16781;DHT22;8507;50.056;8.248;2023-11-19T16:00:26;12.40;99.90
16781;DHT22;8507;50.056;8.248;2023-11-19T16:02:51;12.30;99.90
16781;DHT22;8507;50.056;8.248;2023-11-19T16:05:18;12.30;99.90
16781;DHT22;8507;50.056;8.248;2023-11-19T16:07:44;12.30;99.90
16781;DHT22;8507;50.056;8.248;2023-11-19T16:10:10;12.20;99.90
16781;DHT22;8507;50.056;8.248;2023-11-19T16:12:41;12.10;99.90
16781;DHT22;8507;50.056;8.248;2023-11-19T16:15:07;12.00;99.90